Time;durP1;ratioP1;P1;durP2;ratioP2;P2;SDS_P1;SDS_P2;PMS_P1;PMS_P2;Temp;Humidity;BMP_temperature;BMP_pressure;BME280_temperature;BME280_humidity;BME280_pressure;Samples;Min_cycle;Max_cycle;Signal;HPM_P1;HPM_P2
2023/06/18 00:00:00;;;;;;;;;;;16.50;99.90;;;;;;5077621;28;19935;-83
2023/06/18 00:02:26;;;;;;;;;;;16.60;99.90;;;;;;5085343;27;20085;-83
2023/06/18 00:04:52;;;;;;;;;;;16.50;99.90;;;;;;5090354;27;19935;-83
2023/06/18 00:07:17;;;;;;;;;;;16.40;99.90;;;;;;5086545;27;20381;-84
2023/06/18 00:09:43;;;;;;;;;;;16.50;99.90;;;;;;5086861;28;20628;-83
2023/06/18 00:12:08;;;;;;;;;;;16.40;99.90;;;;;;5082984;27;19924;-84
2023/06/18 00:14:34;;;;;;;;;;;16.40;99.90;;;;;;5088104;28;19928;-83
2023/06/18 00:16:59;;;;;;;;;;;16.30;99.90;;;;;;5083712;28;20028;-83
2023/06/18 00:19:25;;;;;;;;;;;16.30;99.90;;;;;;5086071;28;19934;-83
2023/06/18 00:21:51;;;;;;;;;;;16.30;99.90;;;;;;5081415;28;19936;-83
2023/06/18 00:24:17;;;;;;;;;;;16.30;99.90;;;;;;5087546;28;20403;-83
2023/06/18 00:26:42;;;;;;;;;;;16.30;99.90;;;;;;5082979;28;19924;-83
2023/06/18 00:29:08;;;;;;;;;;;16.20;99.90;;;;;;5083915;28;20418;-83
2023/06/18 00:31:33;;;;;;;;;;;16.10;99.90;;;;;;5067263;28;19939;-84
2023/06/18 00:34:05;;;;;;;;;;;16.00;99.90;;;;;;5081158;28;20145;-83
2023/06/18 00:36:31;;;;;;;;;;;16.00;99.90;;;;;;5083145;28;19932;-84
2023/06/18 00:38:57;;;;;;;;;;;16.00;99.90;;;;;;5081512;28;19932;-83
2023/06/18 00:41:24;;;;;;;;;;;16.00;99.90;;;;;;5082153;28;19951;-83
2023/06/18 00:43:50;;;;;;;;;;;16.00;99.90;;;;;;5086673;28;19983;-83
2023/06/18 00:46:17;;;;;;;;;;;16.00;99.90;;;;;;5081644;28;19986;-84
2023/06/18 00:48:45;;;;;;;;;;;16.00;99.90;;;;;;5065678;28;19927;-83
2023/06/18 00:51:11;;;;;;;;;;;16.00;99.90;;;;;;5067239;28;20361;-83
2023/06/18 00:53:37;;;;;;;;;;;16.00;99.90;;;;;;5061621;28;19934;-84
2023/06/18 00:56:03;;;;;;;;;;;15.90;99.90;;;;;;5082489;28;20334;-84
2023/06/18 00:58:28;;;;;;;;;;;16.00;99.90;;;;;;5084842;28;19932;-83
2023/06/18 01:00:54;;;;;;;;;;;15.90;99.90;;;;;;5083986;27;19923;-83
2023/06/18 01:03:21;;;;;;;;;;;16.00;99.90;;;;;;5089000;28;20393;-84
2023/06/18 01:05:52;;;;;;;;;;;15.90;99.90;;;;;;5092198;27;20305;-84
2023/06/18 01:08:23;;;;;;;;;;;15.90;99.90;;;;;;5089174;28;19959;-83
2023/06/18 01:11:00;;;;;;;;;;;15.80;99.90;;;;;;5090734;28;19935;-83
2023/06/18 01:13:27;;;;;;;;;;;15.90;99.90;;;;;;5086289;28;19927;-84
2023/06/18 01:15:52;;;;;;;;;;;15.80;99.90;;;;;;5087356;28;20003;-84
2023/06/18 01:18:19;;;;;;;;;;;15.70;99.90;;;;;;5088793;27;20035;-83
2023/06/18 01:20:45;;;;;;;;;;;15.80;99.90;;;;;;5086173;28;20510;-84
2023/06/18 01:23:25;;;;;;;;;;;15.70;99.90;;;;;;5084765;28;19924;-84
2023/06/18 01:25:51;;;;;;;;;;;15.60;99.90;;;;;;5071899;28;19928;-84
2023/06/18 01:28:16;;;;;;;;;;;15.70;99.90;;;;;;5087825;28;20638;-83
2023/06/18 01:30:42;;;;;;;;;;;15.60;99.90;;;;;;5088366;27;19934;-84
2023/06/18 01:33:12;;;;;;;;;;;15.40;99.90;;;;;;5086341;27;19931;-83
2023/06/18 01:35:38;;;;;;;;;;;15.40;99.90;;;;;;5084893;28;19939;-84
2023/06/18 01:38:03;;;;;;;;;;;15.40;99.90;;;;;;5084677;28;19928;-83
2023/06/18 01:40:47;;;;;;;;;;;15.40;99.90;;;;;;5085665;28;19932;-83
2023/06/18 01:43:31;;;;;;;;;;;15.40;99.90;;;;;;5086692;27;19931;-83
2023/06/18 01:46:01;;;;;;;;;;;15.50;99.90;;;;;;5085856;28;19938;-84
2023/06/18 01:48:27;;;;;;;;;;;15.50;99.90;;;;;;5083824;27;20054;-84
2023/06/18 01:50:55;;;;;;;;;;;15.50;99.90;;;;;;5086230;28;20390;-84
2023/06/18 01:53:23;;;;;;;;;;;15.50;99.90;;;;;;5087289;28;20025;-84
2023/06/18 01:55:52;;;;;;;;;;;15.50;99.90;;;;;;5088997;28;20397;-83
2023/06/18 01:58:20;;;;;;;;;;;15.50;99.90;;;;;;5085530;28;19935;-83
2023/06/18 02:00:46;;;;;;;;;;;15.40;99.90;;;;;;5088247;27;19976;-84
2023/06/18 02:03:11;;;;;;;;;;;15.50;99.90;;;;;;5086099;28;20314;-83
2023/06/18 02:05:37;;;;;;;;;;;15.50;99.90;;;;;;5085200;28;20483;-83
2023/06/18 02:08:02;;;;;;;;;;;15.40;99.90;;;;;;5084185;27;19924;-83
2023/06/18 02:10:28;;;;;;;;;;;15.40;99.90;;;;;;5073541;28;19953;-83
2023/06/18 02:12:53;;;;;;;;;;;15.40;99.90;;;;;;5082664;28;19927;-83
2023/06/18 02:15:19;;;;;;;;;;;15.40;99.90;;;;;;5086692;27;19975;-83
2023/06/18 02:17:45;;;;;;;;;;;15.30;99.90;;;;;;5087216;28;19935;-83
2023/06/18 02:20:11;;;;;;;;;;;15.30;99.90;;;;;;5086672;27;19923;-83
2023/06/18 02:22:37;;;;;;;;;;;15.20;99.90;;;;;;5089286;27;19927;-83
2023/06/18 02:25:04;;;;;;;;;;;15.30;99.90;;;;;;5083683;28;20337;-83
2023/06/18 02:27:29;;;;;;;;;;;15.20;99.90;;;;;;5069313;27;19976;-84
2023/06/18 02:29:55;;;;;;;;;;;15.10;99.90;;;;;;5085451;28;20385;-83
2023/06/18 02:32:20;;;;;;;;;;;15.10;99.90;;;;;;5087269;27;19986;-83
2023/06/18 02:34:46;;;;;;;;;;;15.10;99.90;;;;;;5090058;28;19928;-83
2023/06/18 02:37:12;;;;;;;;;;;15.00;99.90;;;;;;5084854;28;19935;-83
2023/06/18 02:39:37;;;;;;;;;;;15.10;99.90;;;;;;5083914;28;20452;-83
2023/06/18 02:42:03;;;;;;;;;;;15.10;99.90;;;;;;5083646;28;19934;-83
2023/06/18 02:44:31;;;;;;;;;;;15.00;99.90;;;;;;5086807;27;19928;-83
2023/06/18 02:46:57;;;;;;;;;;;15.20;99.90;;;;;;5086768;28;19927;-83
2023/06/18 02:49:22;;;;;;;;;;;15.10;99.90;;;;;;5106403;27;19928;-83
2023/06/18 02:51:48;;;;;;;;;;;15.10;99.90;;;;;;5088487;28;20491;-84
2023/06/18 02:54:13;;;;;;;;;;;15.10;99.90;;;;;;5084201;28;19934;-84
2023/06/18 02:56:40;;;;;;;;;;;15.10;99.90;;;;;;5083122;28;19931;-84
2023/06/18 02:59:05;;;;;;;;;;;15.00;99.90;;;;;;5086835;28;19952;-84
2023/06/18 03:01:31;;;;;;;;;;;15.00;99.90;;;;;;5085527;28;19935;-83
2023/06/18 03:03:57;;;;;;;;;;;15.00;99.90;;;;;;5085613;28;19931;-83
2023/06/18 03:06:23;;;;;;;;;;;15.00;99.90;;;;;;5087571;28;20377;-83
2023/06/18 03:08:49;;;;;;;;;;;15.00;99.90;;;;;;5105572;28;19974;-83
2023/06/18 03:11:15;;;;;;;;;;;14.90;99.90;;;;;;5087157;28;19973;-82
2023/06/18 03:13:40;;;;;;;;;;;14.90;99.90;;;;;;5084157;28;19935;-83
2023/06/18 03:16:06;;;;;;;;;;;15.00;99.90;;;;;;5084940;28;19932;-83
2023/06/18 03:18:32;;;;;;;;;;;14.90;99.90;;;;;;5084971;28;19927;-83
2023/06/18 03:20:58;;;;;;;;;;;14.90;99.90;;;;;;5084098;28;19924;-83
2023/06/18 03:23:23;;;;;;;;;;;14.90;99.90;;;;;;5086394;28;19935;-83
2023/06/18 03:25:49;;;;;;;;;;;14.90;99.90;;;;;;5087226;28;19927;-84
2023/06/18 03:28:14;;;;;;;;;;;14.90;99.90;;;;;;5081196;28;20341;-84
2023/06/18 03:30:41;;;;;;;;;;;14.90;99.90;;;;;;5085058;28;19936;-83
2023/06/18 03:33:08;;;;;;;;;;;14.90;99.90;;;;;;5066763;28;19924;-84
2023/06/18 03:35:36;;;;;;;;;;;15.00;99.90;;;;;;5083477;28;20429;-83
2023/06/18 03:38:02;;;;;;;;;;;14.90;99.90;;;;;;5086725;28;19967;-83
2023/06/18 03:40:28;;;;;;;;;;;15.00;99.90;;;;;;5085822;28;19986;-83
2023/06/18 03:42:53;;;;;;;;;;;15.00;99.90;;;;;;5100391;27;19932;-83
2023/06/18 03:45:19;;;;;;;;;;;15.00;99.90;;;;;;5083433;28;20345;-83
2023/06/18 03:47:44;;;;;;;;;;;15.00;99.90;;;;;;5086496;28;19951;-83
2023/06/18 03:50:10;;;;;;;;;;;15.00;99.90;;;;;;5081978;28;20558;-83
2023/06/18 03:52:35;;;;;;;;;;;15.10;99.90;;;;;;5087374;27;19988;-84
2023/06/18 03:55:01;;;;;;;;;;;15.10;99.90;;;;;;5086316;28;19927;-84
2023/06/18 03:57:26;;;;;;;;;;;15.10;99.90;;;;;;5087609;28;19924;-84
2023/06/18 03:59:52;;;;;;;;;;;15.30;99.90;;;;;;5086122;28;19932;-83
2023/06/18 04:02:20;;;;;;;;;;;15.30;99.90;;;;;;5087491;27;19932;-83
2023/06/18 04:04:46;;;;;;;;;;;15.30;99.90;;;;;;5103483;28;20420;-83
2023/06/18 04:07:11;;;;;;;;;;;15.40;99.90;;;;;;5084747;28;19927;-84
2023/06/18 04:09:37;;;;;;;;;;;15.30;99.90;;;;;;5103197;27;20040;-84
2023/06/18 04:12:03;;;;;;;;;;;15.30;99.90;;;;;;5068002;28;20031;-84
2023/06/18 04:14:28;;;;;;;;;;;15.30;99.90;;;;;;5085280;28;19932;-85
2023/06/18 04:16:54;;;;;;;;;;;15.30;99.90;;;;;;5085402;28;19977;-84
2023/06/18 04:19:20;;;;;;;;;;;15.40;99.90;;;;;;5086371;28;19932;-84
2023/06/18 04:21:46;;;;;;;;;;;15.40;99.90;;;;;;5068882;28;19924;-85
2023/06/18 04:24:12;;;;;;;;;;;15.40;99.90;;;;;;5068948;27;19934;-85
2023/06/18 04:26:38;;;;;;;;;;;15.50;99.90;;;;;;5065748;28;19974;-84
2023/06/18 04:29:03;;;;;;;;;;;15.40;99.90;;;;;;5084133;28;20412;-85
2023/06/18 04:31:29;;;;;;;;;;;15.40;99.90;;;;;;5082408;28;20315;-84
2023/06/18 04:33:54;;;;;;;;;;;15.40;99.90;;;;;;5088731;28;19970;-85
2023/06/18 04:36:20;;;;;;;;;;;15.50;99.90;;;;;;5085548;28;19939;-86
2023/06/18 04:38:45;;;;;;;;;;;15.70;99.90;;;;;;5088324;28;20018;-84
2023/06/18 04:41:11;;;;;;;;;;;15.70;99.90;;;;;;5066815;28;20381;-83
2023/06/18 04:43:36;;;;;;;;;;;15.80;99.90;;;;;;5085756;28;20474;-85
2023/06/18 04:46:02;;;;;;;;;;;16.10;99.90;;;;;;5084832;28;20640;-84
2023/06/18 04:48:28;;;;;;;;;;;16.20;99.90;;;;;;5084575;28;20367;-85
2023/06/18 04:50:53;;;;;;;;;;;16.20;99.90;;;;;;5088008;28;19923;-85
2023/06/18 04:53:19;;;;;;;;;;;16.50;99.90;;;;;;5082255;28;19967;-84
2023/06/18 04:55:44;;;;;;;;;;;16.90;99.90;;;;;;5084501;28;20602;-85
2023/06/18 04:58:10;;;;;;;;;;;17.10;99.90;;;;;;5085713;28;20071;-85
2023/06/18 05:00:36;;;;;;;;;;;17.50;99.90;;;;;;5084693;28;19924;-84
2023/06/18 05:03:04;;;;;;;;;;;18.20;99.90;;;;;;5084192;28;19949;-85
2023/06/18 05:05:29;;;;;;;;;;;18.60;99.90;;;;;;5085455;28;20030;-84
2023/06/18 05:07:55;;;;;;;;;;;18.40;99.90;;;;;;5084972;28;20042;-85
2023/06/18 05:10:21;;;;;;;;;;;18.10;99.90;;;;;;5081898;28;19928;-86
2023/06/18 05:12:47;;;;;;;;;;;18.40;99.90;;;;;;5085384;28;19973;-84
2023/06/18 05:15:12;;;;;;;;;;;18.70;99.90;;;;;;5085346;28;20293;-84
2023/06/18 05:17:38;;;;;;;;;;;19.20;99.90;;;;;;5085048;28;20488;-85
2023/06/18 05:20:04;;;;;;;;;;;20.00;99.90;;;;;;5081332;28;19923;-85
2023/06/18 05:22:30;;;;;;;;;;;19.90;99.90;;;;;;5082382;28;20179;-85
2023/06/18 05:24:59;;;;;;;;;;;19.90;99.90;;;;;;5084084;28;19931;-85
2023/06/18 05:27:25;;;;;;;;;;;20.30;99.90;;;;;;5084942;28;19955;-84
2023/06/18 05:29:51;;;;;;;;;;;21.20;99.90;;;;;;5084877;28;20511;-84
2023/06/18 05:32:16;;;;;;;;;;;21.70;99.90;;;;;;5084445;28;20010;-85
2023/06/18 05:34:42;;;;;;;;;;;21.90;99.90;;;;;;5085629;28;19924;-86
2023/06/18 05:37:07;;;;;;;;;;;21.70;99.90;;;;;;5068096;28;19928;-84
2023/06/18 05:39:33;;;;;;;;;;;22.60;99.90;;;;;;5084266;28;19932;-85
2023/06/18 05:41:58;;;;;;;;;;;23.30;99.90;;;;;;5086261;28;20014;-85
2023/06/18 05:44:24;;;;;;;;;;;24.10;99.90;;;;;;5081984;28;19931;-85
2023/06/18 05:46:49;;;;;;;;;;;23.60;99.90;;;;;;5083426;28;20373;-85
2023/06/18 05:49:15;;;;;;;;;;;22.50;99.90;;;;;;5086753;28;20387;-85
2023/06/18 05:51:41;;;;;;;;;;;20.60;99.90;;;;;;5070302;28;20448;-84
2023/06/18 05:54:06;;;;;;;;;;;20.90;99.90;;;;;;5068203;28;19928;-85
2023/06/18 05:56:32;;;;;;;;;;;19.90;99.90;;;;;;5088741;28;19930;-85
2023/06/18 05:58:57;;;;;;;;;;;19.80;99.90;;;;;;5071675;28;19928;-85
2023/06/18 06:01:23;;;;;;;;;;;20.50;99.90;;;;;;5087645;28;20030;-84
2023/06/18 06:03:48;;;;;;;;;;;21.30;99.90;;;;;;5087559;28;20396;-85
2023/06/18 06:06:14;;;;;;;;;;;21.10;99.90;;;;;;5088900;28;19923;-86
2023/06/18 06:08:39;;;;;;;;;;;21.20;99.90;;;;;;5086004;27;20308;-84
2023/06/18 06:11:06;;;;;;;;;;;21.30;99.90;;;;;;5086893;28;19969;-85
2023/06/18 06:13:31;;;;;;;;;;;20.70;99.90;;;;;;5090191;27;21208;-85
2023/06/18 06:15:57;;;;;;;;;;;20.40;99.90;;;;;;5089738;28;19928;-85
2023/06/18 06:18:22;;;;;;;;;;;20.90;99.90;;;;;;5070634;28;19927;-86
2023/06/18 06:20:48;;;;;;;;;;;20.50;99.90;;;;;;5085865;28;19923;-85
2023/06/18 06:23:13;;;;;;;;;;;21.40;99.90;;;;;;5085699;28;19931;-84
2023/06/18 06:25:40;;;;;;;;;;;20.80;99.90;;;;;;5089574;27;19968;-84
2023/06/18 06:28:05;;;;;;;;;;;20.80;99.90;;;;;;5091970;28;19928;-85
2023/06/18 06:30:31;;;;;;;;;;;20.80;99.90;;;;;;5085904;28;19942;-85
2023/06/18 06:32:56;;;;;;;;;;;20.50;99.90;;;;;;5080344;27;19930;-85
2023/06/18 06:35:23;;;;;;;;;;;21.00;99.90;;;;;;5085761;28;19984;-84
2023/06/18 06:37:49;;;;;;;;;;;20.80;99.90;;;;;;5102883;28;20570;-85
2023/06/18 06:40:14;;;;;;;;;;;22.10;99.90;;;;;;5088026;27;20018;-85
2023/06/18 06:42:40;;;;;;;;;;;22.10;99.90;;;;;;5088558;28;19935;-85
2023/06/18 06:45:06;;;;;;;;;;;22.40;99.90;;;;;;5086928;28;19931;-85
2023/06/18 06:47:31;;;;;;;;;;;21.90;99.90;;;;;;5087027;28;19934;-85
2023/06/18 06:49:57;;;;;;;;;;;21.60;99.90;;;;;;5087866;28;20702;-86
2023/06/18 06:52:22;;;;;;;;;;;22.20;99.90;;;;;;5088601;28;22178;-84
2023/06/18 06:54:49;;;;;;;;;;;23.00;99.90;;;;;;5087530;28;20422;-84
2023/06/18 06:57:14;;;;;;;;;;;23.50;99.90;;;;;;5069486;28;19928;-85
2023/06/18 06:59:40;;;;;;;;;;;23.00;99.90;;;;;;5089358;28;19967;-86
2023/06/18 07:02:05;;;;;;;;;;;23.10;99.90;;;;;;5083700;28;19931;-85
2023/06/18 07:04:31;;;;;;;;;;;22.60;99.90;;;;;;5088320;27;20346;-85
2023/06/18 07:06:56;;;;;;;;;;;23.00;99.90;;;;;;5086441;28;19928;-85
2023/06/18 07:09:22;;;;;;;;;;;23.00;99.90;;;;;;5068655;28;19928;-85
2023/06/18 07:11:48;;;;;;;;;;;23.10;99.90;;;;;;5085417;28;20303;-84
2023/06/18 07:14:14;;;;;;;;;;;24.00;99.90;;;;;;5084990;28;20400;-85
2023/06/18 07:16:39;;;;;;;;;;;23.60;99.90;;;;;;5087000;28;19924;-84
2023/06/18 07:19:05;;;;;;;;;;;23.20;99.90;;;;;;5085133;28;20026;-84
2023/06/18 07:21:30;;;;;;;;;;;24.00;99.90;;;;;;5084250;28;19978;-85
2023/06/18 07:23:56;;;;;;;;;;;23.00;99.90;;;;;;5085810;28;19928;-85
2023/06/18 07:26:22;;;;;;;;;;;23.20;99.90;;;;;;5086738;28;19970;-84
2023/06/18 07:28:47;;;;;;;;;;;23.70;99.90;;;;;;5084356;28;19936;-85
2023/06/18 07:31:13;;;;;;;;;;;23.60;99.90;;;;;;5084926;28;19927;-85
2023/06/18 07:33:38;;;;;;;;;;;23.50;99.90;;;;;;5085464;28;20032;-84
2023/06/18 07:36:04;;;;;;;;;;;23.20;99.90;;;;;;5082859;28;20334;-85
2023/06/18 07:38:30;;;;;;;;;;;23.70;99.90;;;;;;5084237;28;19934;-84
2023/06/18 07:40:55;;;;;;;;;;;24.50;99.90;;;;;;5067686;28;19932;-85
2023/06/18 07:43:21;;;;;;;;;;;25.30;99.90;;;;;;5083529;28;20019;-84
2023/06/18 07:45:46;;;;;;;;;;;25.40;99.90;;;;;;5086273;28;19928;-84
2023/06/18 07:48:12;;;;;;;;;;;25.40;99.90;;;;;;5102550;28;19930;-85
2023/06/18 07:50:37;;;;;;;;;;;25.60;99.90;;;;;;5084345;28;19927;-85
2023/06/18 07:53:03;;;;;;;;;;;26.20;99.90;;;;;;5082780;28;19928;-85
2023/06/18 07:55:29;;;;;;;;;;;26.10;99.90;;;;;;5082380;28;19931;-84
2023/06/18 07:57:55;;;;;;;;;;;26.00;99.90;;;;;;5086420;28;19935;-86
2023/06/18 08:00:21;;;;;;;;;;;25.70;99.90;;;;;;5085386;28;20026;-85
2023/06/18 08:02:46;;;;;;;;;;;26.20;99.90;;;;;;5080365;28;20090;-85
2023/06/18 08:05:13;;;;;;;;;;;26.60;99.90;;;;;;5081520;28;19976;-86
2023/06/18 08:07:38;;;;;;;;;;;27.00;99.90;;;;;;5079207;28;19932;-85
2023/06/18 08:10:04;;;;;;;;;;;27.10;99.90;;;;;;5076521;28;19930;-85
2023/06/18 08:12:30;;;;;;;;;;;26.70;99.90;;;;;;5083470;28;20281;-86
2023/06/18 08:14:55;;;;;;;;;;;26.10;99.90;;;;;;5085791;28;19933;-85
2023/06/18 08:17:21;;;;;;;;;;;25.80;99.90;;;;;;5087422;27;19932;-85
2023/06/18 08:19:47;;;;;;;;;;;26.70;99.90;;;;;;5083112;28;19932;-86
2023/06/18 08:22:16;;;;;;;;;;;27.00;99.90;;;;;;5084330;28;19930;-86
2023/06/18 08:24:42;;;;;;;;;;;26.30;99.90;;;;;;5081101;28;19931;-86
2023/06/18 08:27:08;;;;;;;;;;;26.60;99.90;;;;;;5083414;27;19928;-86
2023/06/18 08:29:33;;;;;;;;;;;26.90;99.90;;;;;;5087398;28;19924;-86
2023/06/18 08:32:04;;;;;;;;;;;27.80;99.90;;;;;;5065801;28;19939;-87
2023/06/18 08:34:31;;;;;;;;;;;28.10;99.90;;;;;;5083532;28;19971;-86
2023/06/18 08:36:57;;;;;;;;;;;27.40;99.90;;;;;;5081205;28;20392;-84
2023/06/18 08:39:22;;;;;;;;;;;28.20;99.90;;;;;;5084436;28;19971;-84
2023/06/18 08:41:48;;;;;;;;;;;28.50;99.90;;;;;;5080485;28;20015;-84
2023/06/18 08:44:16;;;;;;;;;;;28.70;99.90;;;;;;5084608;28;20364;-85
2023/06/18 08:46:45;;;;;;;;;;;28.70;99.90;;;;;;5066497;28;20307;-86
2023/06/18 08:49:13;;;;;;;;;;;28.70;99.90;;;;;;5086654;28;19971;-85
2023/06/18 08:51:39;;;;;;;;;;;28.70;99.90;;;;;;5083381;28;20786;-84
2023/06/18 08:54:08;;;;;;;;;;;28.80;99.10;;;;;;5084480;28;19928;-85
2023/06/18 08:56:36;;;;;;;;;;;29.30;99.80;;;;;;5083417;28;20746;-86
2023/06/18 08:59:02;;;;;;;;;;;27.70;96.00;;;;;;5082909;28;20381;-87
2023/06/18 09:01:29;;;;;;;;;;;27.50;98.30;;;;;;5048739;28;20033;-84
2023/06/18 09:03:55;;;;;;;;;;;28.60;96.00;;;;;;5081803;28;20401;-87
2023/06/18 09:06:22;;;;;;;;;;;28.40;94.30;;;;;;5084269;28;20080;-84
2023/06/18 09:08:47;;;;;;;;;;;29.20;96.00;;;;;;5065775;28;19923;-85
2023/06/18 09:11:13;;;;;;;;;;;29.40;95.70;;;;;;5083817;28;19927;-86
2023/06/18 09:13:40;;;;;;;;;;;28.70;96.80;;;;;;5081900;28;19932;-83
2023/06/18 09:16:05;;;;;;;;;;;28.30;93.70;;;;;;5085421;28;20384;-85
2023/06/18 09:18:31;;;;;;;;;;;28.80;96.20;;;;;;5067474;28;19939;-85
2023/06/18 09:20:57;;;;;;;;;;;29.20;95.00;;;;;;5081339;28;19928;-86
2023/06/18 09:23:22;;;;;;;;;;;29.20;94.70;;;;;;5084283;28;19939;-85
2023/06/18 09:25:48;;;;;;;;;;;28.80;92.80;;;;;;5085340;28;19935;-85
2023/06/18 09:28:14;;;;;;;;;;;29.30;93.80;;;;;;5087655;28;19924;-82
2023/06/18 09:30:47;;;;;;;;;;;28.60;92.00;;;;;;5074647;27;19930;-85
2023/06/18 09:33:13;;;;;;;;;;;29.20;94.20;;;;;;5085883;28;19972;-86
2023/06/18 09:35:38;;;;;;;;;;;29.90;93.10;;;;;;5084549;28;20278;-87
2023/06/18 09:38:09;;;;;;;;;;;29.70;93.60;;;;;;5088689;28;19993;-86
2023/06/18 09:40:34;;;;;;;;;;;29.30;91.20;;;;;;5071689;27;20471;-86
2023/06/18 09:43:00;;;;;;;;;;;30.10;92.50;;;;;;5085486;28;20060;-86
2023/06/18 09:45:26;;;;;;;;;;;29.60;91.90;;;;;;5084876;28;19986;-85
2023/06/18 09:47:52;;;;;;;;;;;29.80;93.50;;;;;;5075593;27;19924;-82
2023/06/18 09:50:18;;;;;;;;;;;29.00;89.00;;;;;;5071603;28;19935;-83
2023/06/18 09:52:44;;;;;;;;;;;29.80;92.70;;;;;;5082999;27;19928;-85
2023/06/18 09:55:27;;;;;;;;;;;30.60;92.40;;;;;;5083739;28;20361;-86
2023/06/18 09:57:52;;;;;;;;;;;30.90;91.90;;;;;;5085520;27;19931;-84
2023/06/18 10:00:18;;;;;;;;;;;30.30;91.50;;;;;;5087547;28;19927;-83
2023/06/18 10:02:43;;;;;;;;;;;30.60;92.60;;;;;;5084287;28;19928;-85
2023/06/18 10:05:09;;;;;;;;;;;31.30;91.40;;;;;;5067539;28;19931;-84
2023/06/18 10:07:36;;;;;;;;;;;31.70;90.60;;;;;;5088258;27;19924;-83
2023/06/18 10:10:03;;;;;;;;;;;31.70;91.90;;;;;;5087266;28;19966;-85
2023/06/18 10:12:29;;;;;;;;;;;31.40;90.10;;;;;;5083739;28;19927;-85
2023/06/18 10:14:56;;;;;;;;;;;31.60;90.70;;;;;;5086414;28;19950;-84
2023/06/18 10:17:23;;;;;;;;;;;31.90;91.50;;;;;;5088014;28;19938;-87
2023/06/18 10:19:52;;;;;;;;;;;31.30;90.20;;;;;;5088589;28;19923;-86
2023/06/18 10:22:18;;;;;;;;;;;31.60;87.70;;;;;;5085374;28;19928;-83
2023/06/18 10:24:59;;;;;;;;;;;31.30;89.30;;;;;;5087330;27;19945;-86
2023/06/18 10:27:24;;;;;;;;;;;31.70;90.40;;;;;;5086159;27;19932;-84
2023/06/18 10:29:50;;;;;;;;;;;31.50;87.40;;;;;;5090622;28;20014;-86
2023/06/18 10:32:16;;;;;;;;;;;31.50;91.10;;;;;;5085889;28;20289;-85
2023/06/18 10:34:42;;;;;;;;;;;30.30;87.00;;;;;;5102335;28;19927;-86
2023/06/18 10:37:08;;;;;;;;;;;29.80;89.80;;;;;;5087818;27;19927;-85
2023/06/18 10:39:34;;;;;;;;;;;30.40;87.90;;;;;;5085658;28;19952;-85
2023/06/18 10:42:10;;;;;;;;;;;30.70;85.80;;;;;;5083399;28;21696;-86
2023/06/18 10:44:55;;;;;;;;;;;30.70;87.20;;;;;;5087086;28;19927;-86
2023/06/18 10:47:23;;;;;;;;;;;30.50;88.20;;;;;;5087289;28;19928;-84
2023/06/18 10:50:07;;;;;;;;;;;30.20;83.70;;;;;;5068660;27;19966;-83
2023/06/18 10:52:35;;;;;;;;;;;29.00;84.60;;;;;;5083911;27;20015;-83
2023/06/18 10:55:09;;;;;;;;;;;29.40;85.10;;;;;;5086092;28;20034;-84
2023/06/18 10:57:38;;;;;;;;;;;29.40;86.30;;;;;;5085362;28;20312;-83
2023/06/18 11:00:15;;;;;;;;;;;29.10;86.10;;;;;;5087364;28;19928;-85
2023/06/18 11:02:40;;;;;;;;;;;29.40;88.20;;;;;;5084236;28;19927;-82
2023/06/18 11:05:06;;;;;;;;;;;29.20;84.90;;;;;;5090549;28;19931;-85
2023/06/18 11:07:32;;;;;;;;;;;28.90;81.00;;;;;;5085177;28;19927;-84
2023/06/18 11:09:58;;;;;;;;;;;29.10;87.90;;;;;;5086533;28;20446;-85
2023/06/18 11:12:24;;;;;;;;;;;28.70;86.00;;;;;;5086799;28;19932;-85
2023/06/18 11:15:06;;;;;;;;;;;29.00;89.60;;;;;;5089816;27;19927;-83
2023/06/18 11:17:32;;;;;;;;;;;28.90;86.40;;;;;;5085384;28;20369;-87
2023/06/18 11:19:59;;;;;;;;;;;28.70;87.80;;;;;;5084962;28;19928;-85
2023/06/18 11:22:26;;;;;;;;;;;29.00;83.20;;;;;;5084706;28;19967;-84
2023/06/18 11:24:52;;;;;;;;;;;29.10;87.80;;;;;;5088543;27;19931;-82
2023/06/18 11:27:21;;;;;;;;;;;29.30;85.30;;;;;;5086350;28;19942;-83
2023/06/18 11:29:47;;;;;;;;;;;30.20;87.90;;;;;;5103711;27;20372;-85
2023/06/18 11:32:13;;;;;;;;;;;30.60;84.80;;;;;;5082811;28;19932;-84
2023/06/18 11:34:44;;;;;;;;;;;29.90;83.60;;;;;;5101771;28;19931;-83
2023/06/18 11:37:10;;;;;;;;;;;30.60;84.60;;;;;;5086451;28;20262;-83
2023/06/18 11:39:36;;;;;;;;;;;31.10;83.60;;;;;;5084393;28;19972;-85
2023/06/18 11:42:12;;;;;;;;;;;30.30;86.00;;;;;;5080118;28;20474;-85
2023/06/18 11:44:47;;;;;;;;;;;30.50;85.80;;;;;;5080993;28;20683;-85
2023/06/18 11:47:13;;;;;;;;;;;31.00;86.30;;;;;;5103831;27;20018;-85
2023/06/18 11:49:44;;;;;;;;;;;31.10;86.30;;;;;;5084596;28;20026;-85
2023/06/18 11:52:17;;;;;;;;;;;30.90;83.40;;;;;;5082254;28;19932;-84
2023/06/18 11:54:43;;;;;;;;;;;31.20;86.10;;;;;;5102820;28;19935;-83
2023/06/18 11:57:10;;;;;;;;;;;30.90;84.10;;;;;;5083537;28;20078;-83
2023/06/18 11:59:36;;;;;;;;;;;31.30;84.10;;;;;;5084584;28;19932;-85
2023/06/18 12:02:14;;;;;;;;;;;31.70;83.00;;;;;;5083917;28;19928;-85
2023/06/18 12:04:41;;;;;;;;;;;31.70;81.80;;;;;;5083921;28;20407;-85
2023/06/18 12:07:07;;;;;;;;;;;31.90;85.00;;;;;;5081097;28;19948;-85
2023/06/18 12:09:33;;;;;;;;;;;32.10;85.20;;;;;;5088057;28;19965;-85
2023/06/18 12:12:15;;;;;;;;;;;32.30;85.20;;;;;;5087388;27;20395;-85
2023/06/18 12:14:49;;;;;;;;;;;32.60;84.70;;;;;;5084598;28;19958;-86
2023/06/18 12:17:31;;;;;;;;;;;32.50;81.60;;;;;;5081592;28;20408;-85
2023/06/18 12:20:04;;;;;;;;;;;32.20;78.30;;;;;;5085588;28;20499;-86
2023/06/18 12:22:29;;;;;;;;;;;32.80;80.40;;;;;;5102093;28;19932;-87
2023/06/18 12:24:55;;;;;;;;;;;32.80;79.00;;;;;;5084446;28;19940;-86
2023/06/18 12:27:22;;;;;;;;;;;31.90;78.70;;;;;;5084647;28;20351;-86
2023/06/18 12:29:47;;;;;;;;;;;31.70;82.90;;;;;;5081316;28;19935;-86
2023/06/18 12:32:13;;;;;;;;;;;31.30;75.40;;;;;;5082384;28;20423;-86
2023/06/18 12:34:39;;;;;;;;;;;30.60;77.40;;;;;;5085509;28;20496;-87
2023/06/18 12:37:05;;;;;;;;;;;31.40;79.40;;;;;;5082248;28;20014;-86
2023/06/18 12:39:30;;;;;;;;;;;30.80;75.70;;;;;;5088816;28;20758;-87
2023/06/18 12:41:56;;;;;;;;;;;30.70;78.90;;;;;;5085277;28;20293;-87
2023/06/18 12:44:21;;;;;;;;;;;31.80;79.60;;;;;;5083075;28;19928;-85
2023/06/18 12:46:49;;;;;;;;;;;31.90;81.10;;;;;;5081516;28;19928;-86
2023/06/18 12:49:15;;;;;;;;;;;32.60;80.20;;;;;;5081520;28;19935;-85
2023/06/18 12:51:41;;;;;;;;;;;33.00;79.60;;;;;;5082353;28;19959;-83
2023/06/18 12:54:21;;;;;;;;;;;32.90;77.50;;;;;;5097865;28;19983;-85
2023/06/18 12:56:47;;;;;;;;;;;33.30;77.90;;;;;;5084485;28;19932;-85
2023/06/18 12:59:16;;;;;;;;;;;33.30;77.50;;;;;;5080842;27;20041;-85
2023/06/18 13:01:43;;;;;;;;;;;33.50;76.50;;;;;;5082640;28;19924;-85
2023/06/18 13:04:09;;;;;;;;;;;32.40;75.20;;;;;;5083719;27;20516;-86
2023/06/18 13:06:35;;;;;;;;;;;32.30;72.00;;;;;;5084038;28;20019;-85
2023/06/18 13:09:02;;;;;;;;;;;31.90;74.20;;;;;;5086419;28;20681;-86
2023/06/18 13:11:27;;;;;;;;;;;31.60;78.70;;;;;;5082140;28;19924;-84
2023/06/18 13:13:53;;;;;;;;;;;30.80;77.10;;;;;;5104519;27;19928;-86
2023/06/18 13:16:19;;;;;;;;;;;30.60;76.80;;;;;;5064961;28;19928;-86
2023/06/18 13:18:45;;;;;;;;;;;30.30;78.80;;;;;;5081915;28;20309;-85
2023/06/18 13:21:10;;;;;;;;;;;30.50;78.90;;;;;;5088343;28;20011;-86
2023/06/18 13:23:38;;;;;;;;;;;30.50;80.40;;;;;;5083459;28;19928;-86
2023/06/18 13:26:04;;;;;;;;;;;30.20;77.80;;;;;;5081962;27;20384;-85
2023/06/18 13:28:30;;;;;;;;;;;30.10;75.50;;;;;;5065264;28;19935;-85
2023/06/18 13:30:57;;;;;;;;;;;30.20;78.70;;;;;;5086880;27;19967;-84
2023/06/18 13:33:23;;;;;;;;;;;30.00;77.00;;;;;;5100852;28;20807;-85
2023/06/18 13:35:48;;;;;;;;;;;30.00;79.60;;;;;;5086748;28;20018;-86
2023/06/18 13:38:14;;;;;;;;;;;29.90;74.90;;;;;;5085598;28;20091;-86
2023/06/18 13:40:40;;;;;;;;;;;30.30;80.00;;;;;;5082323;28;20020;-86
2023/06/18 13:43:05;;;;;;;;;;;30.10;75.10;;;;;;5086065;28;20576;-86
2023/06/18 13:45:31;;;;;;;;;;;30.60;78.90;;;;;;5086174;28;19981;-86
2023/06/18 13:47:57;;;;;;;;;;;30.50;80.00;;;;;;5086562;28;19932;-84
2023/06/18 13:50:22;;;;;;;;;;;30.70;80.60;;;;;;5087189;28;20376;-83
2023/06/18 13:52:48;;;;;;;;;;;30.00;80.70;;;;;;5084220;28;19928;-86
2023/06/18 13:55:13;;;;;;;;;;;30.10;76.60;;;;;;5088626;28;19935;-85
2023/06/18 13:57:39;;;;;;;;;;;30.20;81.40;;;;;;5083753;28;20026;-87
2023/06/18 14:00:06;;;;;;;;;;;29.90;77.50;;;;;;5088393;28;20385;-87
2023/06/18 14:02:32;;;;;;;;;;;29.10;76.00;;;;;;5086107;28;19928;-85
2023/06/18 14:04:58;;;;;;;;;;;29.50;78.90;;;;;;5087852;28;20422;-86
2023/06/18 14:07:24;;;;;;;;;;;29.70;81.40;;;;;;5069352;28;20349;-86
2023/06/18 14:09:50;;;;;;;;;;;29.30;76.60;;;;;;5102287;28;20304;-85
2023/06/18 14:12:15;;;;;;;;;;;29.30;83.50;;;;;;5090807;27;19924;-86